Riderwood, Maryland
Current Conditions -  °F | °C
As of 8:45 AM on Friday 31 Oct 2014 (Local Time) from KMTN Reporting Station
Overcast Overcast  
Wind Chill: 48°   Ceiling: 6000
Heat Index: 48°   Visibility: 10mi
Dew Point: 41°   Wind: 0mph
Humidity: 76%   Direction: NA
Pressure: 30.02"   Gusts: NA
Location:  39.41°N, 76.65°W
Report Text: KMTN 311245Z 00000KT 10SM OVC060 09/05 A3002
Loading
Personal Weather Stations






























Interactive Weather Map
Tropical Storm Tracking
New forecast layout! Learn more

10-Day Weather Forecast

Advertisements
Track Severe Weather on mobile